大分 の空港の天気 - METARとTAF

大分空港 ( RJFO / OIT ) - 大分県武蔵町
飛行場実況気象(Metar)
観測時間08/05 07:30 JST (08/04 22:30 UTC)
風向・風速不定 1m/s
視程1500m
天気現象散在した霧 もや
全天の4割程度の雲 雲底高度 30m
全天の8割程度の雲 雲底高度 90m
気温25℃
湿度94%
気圧1016hPa
METARRJFO 042230Z VRB01KT 1500 R01///// BR BCFG SCT001 BKN003 25/24 Q1016 RMK 4ST001 7ST003 A3003 FG ALL QUAD
過去の天気等 Google飛行場航空写真 Wunderground天気予報

過去48時間のMETAR

飛行場予報(TAF)
発表時間: 8/05 07:06 JST (8/04 22:06 UTC)
予報対象時間: 5日7時 JST ~ 6日9時 JST
風向・風速東南東 2m/s
視程6000m
少しの雲 雲底高度 150m
全天の4割程度の雲 雲底高度 300m
全天の8割程度の雲 雲底高度 460m
5日7時 JST ~ 5日9時 JST に一時的に
視程500m
天気現象
少しの雲 雲底高度 60m
全天の8割程度の雲 雲底高度 90m
全天の8割程度の雲 雲底高度 300m
5日9時 JST ~ 5日18時 JST に一時的に
視程4000m
天気現象もや
5日15時 JST ~ 5日18時 JST に徐々に
風向・風速南東 8m/s
5日21時 JST ~ 5日24時 JST に徐々に
風向・風速南南西 2m/s
TAF AMD RJFO 042206Z 0422/0600 12003KT 6000 FEW005 SCT010 BKN015
TEMPO 0422/0500 0500 FG FEW002 BKN003 BKN010
TEMPO 0500/0509 4000 BR
BECMG 0506/0509 14015KT
BECMG 0512/0515 20004KT
日本の空港のMETAR・TAFへのリンク

RJTT 東京国際空港
RJAA 新東京国際空港
RJBB 関西国際空港
RJOO 大阪空港
RJGG 中部国際空港
RJCC 新千歳空港
RJFF 福岡空港
ROAH 那覇空港


RJEC 旭川空港
RJCH 函館空港
RJCK 釧路空港
RJCM 女満別空港
RJCB 帯広空港
RJSA 青森空港
RJSS 仙台空港
RJSK 秋田空港
RJSF 福島空港
RJAH 茨城空港
RJSN 新潟空港
RJNT 富山空港
RJNK 小松飛行場
RJNS 静岡空港
RJOH 美保飛行場
RJOC 出雲空港
RJOB 岡山空港
RJOA 広島空港
RJOI 岩国飛行場
RJOT 高松空港
RJOM 松山空港
RJOK 高知空港
RJFR 北九州空港
RJFT 熊本空港
RJFU 長崎空港
RJFS 佐賀空港
RJFO 大分空港
RJFM 宮崎空港
RJFK 鹿児島空港
ROIG 石垣島空港
RJTY 横田飛行場
ROTM 普天間飛行場
RODN 嘉手納飛行場